Midway, AR (72651)

1:52 AM CDT on May 27, 2017 (GMT -0500)
Wildrose | | Change Station
Active Advisory: Severe Thunderstorm Watch

Elev 899 ft 36.39 °N, 92.46 °W | Updated 16 seconds ago

Clear
Clear
68.9 °F
Feels Like 68.9 °F
N
0.0
Wind Variable Wind from ESE

Today
High -- | Low -- °F
--% Chance of Precip.
Yesterday
High -- | Low -- °F
Precip. -- in
Pressure 29.81 in
Visibility 10.0 miles
Clouds Clear
Dew Point 66 °F
Humidity 91%
Rainfall 0.00 in
Snow Depth Not available.
5:55 AM 8:19 PM
Waxing Crescent, 3% visible
METAR KBPK 270553Z AUTO 14004KT 10SM CLR 22/21 A2984 RMK AO2 SLP095 T02220211 10256 20222 402670172 50001 TSNO
Pressure 29.81 in
Visibility 10.0 miles
Clouds Clear
Dew Point 66 °F
Humidity 91%
Rainfall 0.00 in
Snow Depth Not available.
5:55 AM 8:19 PM
Waxing Crescent, 3% visible
METAR KBPK 270553Z AUTO 14004KT 10SM CLR 22/21 A2984 RMK AO2 SLP095 T02220211 10256 20222 402670172 50001 TSNO

Get Your Daily Forecast Email!

Thanks for signing up!

Be on the lookout for a verification email in your inbox.

You'll start receiving severe weather alerts in your inbox..

×

10-Day Weather Forecast

Almanac

Astronomy

May. 27, 2017 Rise Set
Actual Time
Civil Twilight
Nautical Twilight
Astronomical Twilight
Moon
Length of Visible Light
Length of Day
Tomorrow will be .
, % of the Moon is Illuminated

Today's Extremes

State Highs State Lows

Community

WunderPhotos

Category 6

Welcome to Category 6. This is the collective home for Weather Underground's featured writeups by Dr. Jeff Masters (right), Bob Henson (left), Chris Burt, and other regular contributors.

Nearby

Air Quality

  Air Quality AQ Index Pollutant
Not available.

Snow Depth

Station Depth Elevation

Earthquake Activity

City Distance Mag. Time & Date
Minimum magnitude displayed is 2.5.

Coastal Water Temperatures

Place Temperature

Stations

Nearby Weather Stations

Station Location Temp. Windchill Dew Point Humidity Wind Precip. Elev Updated Type
                   

Watches & Warnings

Severe Thunderstorm Watch
Issued: 1:43 AM CDT May. 27, 2017 – National Weather Service

Severe Thunderstorm Watch 272 remains in effect until 700 am CDT
for the following locations


AR
. Arkansas counties included are

Baxter Benton Boone
Carroll Fulton Izard
Madison Marion Newton
Searcy sharp stone
Washington